sensor_id;sensor_type;location;lat;lon;timestamp;temperature;humidity
40622;DHT22;26324;52.040;11.528;2023-12-04T00:01:32;-3273.70;88.00
40622;DHT22;26324;52.040;11.528;2023-12-04T00:04:01;-3273.60;87.90
40622;DHT22;26324;52.040;11.528;2023-12-04T00:06:29;-3273.70;87.90
40622;DHT22;26324;52.040;11.528;2023-12-04T00:08:56;-3273.70;87.70
40622;DHT22;26324;52.040;11.528;2023-12-04T00:11:23;-3273.70;87.70
40622;DHT22;26324;52.040;11.528;2023-12-04T00:13:51;-3273.70;87.70
40622;DHT22;26324;52.040;11.528;2023-12-04T00:16:20;-3273.80;87.70
40622;DHT22;26324;52.040;11.528;2023-12-04T00:18:47;-3273.70;87.70
40622;DHT22;26324;52.040;11.528;2023-12-04T00:21:14;-3273.80;87.70
40622;DHT22;26324;52.040;11.528;2023-12-04T00:23:42;-3273.80;87.70
40622;DHT22;26324;52.040;11.528;2023-12-04T00:26:13;-3273.80;87.50
40622;DHT22;26324;52.040;11.528;2023-12-04T00:28:40;-3273.70;87.50
40622;DHT22;26324;52.040;11.528;2023-12-04T00:31:08;-3273.80;87.60
40622;DHT22;26324;52.040;11.528;2023-12-04T00:33:36;-3273.80;87.60
40622;DHT22;26324;52.040;11.528;2023-12-04T00:36:04;-3273.80;87.50
40622;DHT22;26324;52.040;11.528;2023-12-04T00:38:31;-3273.70;87.50
40622;DHT22;26324;52.040;11.528;2023-12-04T00:40:58;-3273.80;87.50
40622;DHT22;26324;52.040;11.528;2023-12-04T00:43:26;-3273.80;87.60
40622;DHT22;26324;52.040;11.528;2023-12-04T00:45:53;-3273.70;87.60
40622;DHT22;26324;52.040;11.528;2023-12-04T00:48:21;-3273.80;87.70
40622;DHT22;26324;52.040;11.528;2023-12-04T00:50:50;-3273.80;87.50
40622;DHT22;26324;52.040;11.528;2023-12-04T00:53:18;-3273.80;87.50
40622;DHT22;26324;52.040;11.528;2023-12-04T00:55:46;-3273.80;87.50
40622;DHT22;26324;52.040;11.528;2023-12-04T00:58:13;-3273.70;87.60
40622;DHT22;26324;52.040;11.528;2023-12-04T01:00:40;-3273.80;87.60
40622;DHT22;26324;52.040;11.528;2023-12-04T01:03:08;-3273.80;87.40
40622;DHT22;26324;52.040;11.528;2023-12-04T01:05:35;-3273.80;87.60
40622;DHT22;26324;52.040;11.528;2023-12-04T01:08:02;-3273.90;87.70
40622;DHT22;26324;52.040;11.528;2023-12-04T01:10:30;-3273.90;87.60
40622;DHT22;26324;52.040;11.528;2023-12-04T01:12:57;-3273.80;87.40
40622;DHT22;26324;52.040;11.528;2023-12-04T01:15:24;-3273.80;87.50
40622;DHT22;26324;52.040;11.528;2023-12-04T01:17:52;-3273.80;87.40
40622;DHT22;26324;52.040;11.528;2023-12-04T01:20:19;-3273.80;87.40
40622;DHT22;26324;52.040;11.528;2023-12-04T01:22:46;-3273.80;87.40
40622;DHT22;26324;52.040;11.528;2023-12-04T01:25:13;-3273.80;87.50
40622;DHT22;26324;52.040;11.528;2023-12-04T01:27:41;-3273.80;87.60
40622;DHT22;26324;52.040;11.528;2023-12-04T01:30:09;-3273.80;87.60
40622;DHT22;26324;52.040;11.528;2023-12-04T01:32:37;-3273.80;87.40
40622;DHT22;26324;52.040;11.528;2023-12-04T01:35:05;-3273.80;87.60
40622;DHT22;26324;52.040;11.528;2023-12-04T01:37:32;-3273.90;87.40
40622;DHT22;26324;52.040;11.528;2023-12-04T01:39:59;-3273.90;87.20
40622;DHT22;26324;52.040;11.528;2023-12-04T01:42:27;-3273.80;87.20
40622;DHT22;26324;52.040;11.528;2023-12-04T01:44:54;-3273.90;87.20
40622;DHT22;26324;52.040;11.528;2023-12-04T01:47:21;-3273.80;87.20
40622;DHT22;26324;52.040;11.528;2023-12-04T01:49:49;-3273.80;87.10
40622;DHT22;26324;52.040;11.528;2023-12-04T01:52:16;-3273.90;87.20
40622;DHT22;26324;52.040;11.528;2023-12-04T01:54:44;-3273.90;87.10
40622;DHT22;26324;52.040;11.528;2023-12-04T01:57:11;-3273.90;86.80
40622;DHT22;26324;52.040;11.528;2023-12-04T01:59:39;-3273.90;86.70
40622;DHT22;26324;52.040;11.528;2023-12-04T02:02:06;-3273.90;86.40
40622;DHT22;26324;52.040;11.528;2023-12-04T02:04:34;-3273.90;86.70
40622;DHT22;26324;52.040;11.528;2023-12-04T02:07:02;-3273.80;86.90
40622;DHT22;26324;52.040;11.528;2023-12-04T02:09:30;-3273.90;86.70
40622;DHT22;26324;52.040;11.528;2023-12-04T02:11:59;-3273.90;86.50
40622;DHT22;26324;52.040;11.528;2023-12-04T02:14:27;-3273.80;86.40
40622;DHT22;26324;52.040;11.528;2023-12-04T02:16:55;-3273.90;86.50
40622;DHT22;26324;52.040;11.528;2023-12-04T02:19:23;-3273.80;86.30
40622;DHT22;26324;52.040;11.528;2023-12-04T02:21:51;-3273.90;86.50
40622;DHT22;26324;52.040;11.528;2023-12-04T02:24:18;-3273.90;86.40
40622;DHT22;26324;52.040;11.528;2023-12-04T02:26:55;-3274.00;86.20
40622;DHT22;26324;52.040;11.528;2023-12-04T02:29:31;-3273.90;85.90
40622;DHT22;26324;52.040;11.528;2023-12-04T02:32:01;-3273.90;86.00
40622;DHT22;26324;52.040;11.528;2023-12-04T02:34:32;-3273.90;86.10
40622;DHT22;26324;52.040;11.528;2023-12-04T02:37:02;-3273.90;86.10
40622;DHT22;26324;52.040;11.528;2023-12-04T02:39:30;-3273.90;85.80
40622;DHT22;26324;52.040;11.528;2023-12-04T02:41:58;-3273.90;86.00
40622;DHT22;26324;52.040;11.528;2023-12-04T02:44:25;-3273.80;86.20
40622;DHT22;26324;52.040;11.528;2023-12-04T02:46:52;-3273.90;86.40
40622;DHT22;26324;52.040;11.528;2023-12-04T02:49:19;-3273.70;86.20
40622;DHT22;26324;52.040;11.528;2023-12-04T02:51:47;-3273.70;86.50
40622;DHT22;26324;52.040;11.528;2023-12-04T02:54:14;-3273.60;86.60
40622;DHT22;26324;52.040;11.528;2023-12-04T02:56:42;-3273.60;86.60
40622;DHT22;26324;52.040;11.528;2023-12-04T02:59:09;-3273.60;86.90
40622;DHT22;26324;52.040;11.528;2023-12-04T03:01:36;-3273.50;86.80
40622;DHT22;26324;52.040;11.528;2023-12-04T03:04:03;-3273.50;87.20
40622;DHT22;26324;52.040;11.528;2023-12-04T03:06:31;-3273.60;87.10
40622;DHT22;26324;52.040;11.528;2023-12-04T03:08:59;-3273.60;87.00
40622;DHT22;26324;52.040;11.528;2023-12-04T03:11:52;-3273.50;87.00
40622;DHT22;26324;52.040;11.528;2023-12-04T03:14:19;-3273.60;87.10
40622;DHT22;26324;52.040;11.528;2023-12-04T03:16:47;-3273.60;86.90
40622;DHT22;26324;52.040;11.528;2023-12-04T03:19:14;-3273.60;86.80
40622;DHT22;26324;52.040;11.528;2023-12-04T03:21:41;-3273.60;86.80
40622;DHT22;26324;52.040;11.528;2023-12-04T03:24:09;-3273.60;86.90
40622;DHT22;26324;52.040;11.528;2023-12-04T03:26:36;-3273.60;86.70
40622;DHT22;26324;52.040;11.528;2023-12-04T03:29:04;-3273.60;86.60
40622;DHT22;26324;52.040;11.528;2023-12-04T03:31:31;-3273.60;86.60
40622;DHT22;26324;52.040;11.528;2023-12-04T03:33:58;-3273.60;86.60
40622;DHT22;26324;52.040;11.528;2023-12-04T03:36:51;-3273.60;86.70
40622;DHT22;26324;52.040;11.528;2023-12-04T03:39:18;-3273.60;86.80
40622;DHT22;26324;52.040;11.528;2023-12-04T03:41:47;-3273.70;86.50
40622;DHT22;26324;52.040;11.528;2023-12-04T03:44:14;-3273.70;86.40
40622;DHT22;26324;52.040;11.528;2023-12-04T03:46:42;-3273.70;86.60
40622;DHT22;26324;52.040;11.528;2023-12-04T03:49:09;-3273.60;86.60
40622;DHT22;26324;52.040;11.528;2023-12-04T03:51:36;-3273.70;86.90
40622;DHT22;26324;52.040;11.528;2023-12-04T03:54:04;-3273.70;87.10
40622;DHT22;26324;52.040;11.528;2023-12-04T03:56:31;-3273.80;86.90
40622;DHT22;26324;52.040;11.528;2023-12-04T03:58:58;-3273.80;86.50
40622;DHT22;26324;52.040;11.528;2023-12-04T04:01:25;-3273.90;86.40
40622;DHT22;26324;52.040;11.528;2023-12-04T04:03:53;-3273.90;86.50
40622;DHT22;26324;52.040;11.528;2023-12-04T04:06:21;-3273.90;86.60
40622;DHT22;26324;52.040;11.528;2023-12-04T04:08:48;-3273.90;86.50
40622;DHT22;26324;52.040;11.528;2023-12-04T04:11:15;-3273.90;86.70
40622;DHT22;26324;52.040;11.528;2023-12-04T04:13:42;-3273.90;86.60
40622;DHT22;26324;52.040;11.528;2023-12-04T04:16:15;-3273.90;86.60
40622;DHT22;26324;52.040;11.528;2023-12-04T04:18:43;-3273.90;86.70
40622;DHT22;26324;52.040;11.528;2023-12-04T04:21:10;-3273.90;86.80
40622;DHT22;26324;52.040;11.528;2023-12-04T04:23:38;-3273.90;86.90
40622;DHT22;26324;52.040;11.528;2023-12-04T04:26:05;-3273.90;86.90
40622;DHT22;26324;52.040;11.528;2023-12-04T04:28:33;-3274.00;87.10
40622;DHT22;26324;52.040;11.528;2023-12-04T04:31:00;-3274.00;86.80
40622;DHT22;26324;52.040;11.528;2023-12-04T04:33:27;-3274.10;86.80
40622;DHT22;26324;52.040;11.528;2023-12-04T04:35:55;-3274.20;86.80
40622;DHT22;26324;52.040;11.528;2023-12-04T04:38:22;-3274.20;86.70
40622;DHT22;26324;52.040;11.528;2023-12-04T04:40:49;-3274.10;86.50
40622;DHT22;26324;52.040;11.528;2023-12-04T04:43:17;-3274.20;86.60
40622;DHT22;26324;52.040;11.528;2023-12-04T04:45:44;-3274.10;86.60
40622;DHT22;26324;52.040;11.528;2023-12-04T04:48:11;-3274.20;86.70
40622;DHT22;26324;52.040;11.528;2023-12-04T04:50:38;-3274.10;86.50
40622;DHT22;26324;52.040;11.528;2023-12-04T04:53:06;-3274.20;86.60
40622;DHT22;26324;52.040;11.528;2023-12-04T04:55:33;-3274.20;86.60
40622;DHT22;26324;52.040;11.528;2023-12-04T04:58:16;-3274.20;86.60
40622;DHT22;26324;52.040;11.528;2023-12-04T05:00:44;-3274.20;86.60
40622;DHT22;26324;52.040;11.528;2023-12-04T05:03:12;-3274.20;86.60
40622;DHT22;26324;52.040;11.528;2023-12-04T05:05:39;-3274.20;86.60
40622;DHT22;26324;52.040;11.528;2023-12-04T05:08:07;-3274.20;86.50
40622;DHT22;26324;52.040;11.528;2023-12-04T05:10:34;-3274.30;86.70
40622;DHT22;26324;52.040;11.528;2023-12-04T05:13:01;-3274.20;86.50
40622;DHT22;26324;52.040;11.528;2023-12-04T05:15:28;-3274.30;86.30
40622;DHT22;26324;52.040;11.528;2023-12-04T05:17:57;-3274.30;86.30
40622;DHT22;26324;52.040;11.528;2023-12-04T05:20:24;-3274.30;86.10
40622;DHT22;26324;52.040;11.528;2023-12-04T05:22:52;-3274.20;86.10
40622;DHT22;26324;52.040;11.528;2023-12-04T05:25:19;-3274.10;86.40
40622;DHT22;26324;52.040;11.528;2023-12-04T05:27:46;-3274.10;86.70
40622;DHT22;26324;52.040;11.528;2023-12-04T05:30:16;-3274.10;86.60
40622;DHT22;26324;52.040;11.528;2023-12-04T05:32:43;-3274.10;86.70
40622;DHT22;26324;52.040;11.528;2023-12-04T05:35:11;-3274.10;86.70
40622;DHT22;26324;52.040;11.528;2023-12-04T05:37:38;-3274.10;86.60
40622;DHT22;26324;52.040;11.528;2023-12-04T05:40:06;-3274.10;86.80
40622;DHT22;26324;52.040;11.528;2023-12-04T05:42:33;-3274.20;86.90
40622;DHT22;26324;52.040;11.528;2023-12-04T05:45:01;-3274.20;86.90
40622;DHT22;26324;52.040;11.528;2023-12-04T05:47:28;-3274.30;86.90
40622;DHT22;26324;52.040;11.528;2023-12-04T05:49:56;-3274.20;86.80
40622;DHT22;26324;52.040;11.528;2023-12-04T05:52:23;-3274.20;87.00
40622;DHT22;26324;52.040;11.528;2023-12-04T05:54:50;-3274.20;86.90
40622;DHT22;26324;52.040;11.528;2023-12-04T05:57:18;-3274.10;87.10
40622;DHT22;26324;52.040;11.528;2023-12-04T05:59:45;-3274.10;87.20
40622;DHT22;26324;52.040;11.528;2023-12-04T06:02:13;-3274.10;87.10
40622;DHT22;26324;52.040;11.528;2023-12-04T06:04:42;-3274.10;87.20
40622;DHT22;26324;52.040;11.528;2023-12-04T06:07:09;-3274.10;87.40
40622;DHT22;26324;52.040;11.528;2023-12-04T06:09:37;-3274.10;87.20
40622;DHT22;26324;52.040;11.528;2023-12-04T06:12:04;-3274.00;87.10
40622;DHT22;26324;52.040;11.528;2023-12-04T06:14:35;-3274.10;87.30
40622;DHT22;26324;52.040;11.528;2023-12-04T06:17:03;-3274.10;87.10
40622;DHT22;26324;52.040;11.528;2023-12-04T06:19:32;-3274.00;87.10
40622;DHT22;26324;52.040;11.528;2023-12-04T06:22:00;-3274.00;87.20
40622;DHT22;26324;52.040;11.528;2023-12-04T06:24:34;-3274.00;87.20
40622;DHT22;26324;52.040;11.528;2023-12-04T06:27:02;-3274.10;87.30
40622;DHT22;26324;52.040;11.528;2023-12-04T06:29:30;-3274.10;87.30
40622;DHT22;26324;52.040;11.528;2023-12-04T06:31:58;-3274.10;87.30
40622;DHT22;26324;52.040;11.528;2023-12-04T06:34:26;-3274.10;87.30
40622;DHT22;26324;52.040;11.528;2023-12-04T06:36:55;-3274.20;87.20
40622;DHT22;26324;52.040;11.528;2023-12-04T06:39:23;-3274.20;86.90
40622;DHT22;26324;52.040;11.528;2023-12-04T06:41:51;-3274.20;86.80
40622;DHT22;26324;52.040;11.528;2023-12-04T06:44:19;-3274.30;86.80
40622;DHT22;26324;52.040;11.528;2023-12-04T06:46:48;-3274.30;86.90
40622;DHT22;26324;52.040;11.528;2023-12-04T06:49:17;-3274.30;86.60
40622;DHT22;26324;52.040;11.528;2023-12-04T06:51:45;-3274.40;86.80
40622;DHT22;26324;52.040;11.528;2023-12-04T06:54:13;-3274.30;86.50
40622;DHT22;26324;52.040;11.528;2023-12-04T06:56:41;-3274.30;86.60
40622;DHT22;26324;52.040;11.528;2023-12-04T06:59:08;-3274.40;86.80
40622;DHT22;26324;52.040;11.528;2023-12-04T07:01:35;-3274.40;86.60
40622;DHT22;26324;52.040;11.528;2023-12-04T07:04:03;-3274.40;86.60
40622;DHT22;26324;52.040;11.528;2023-12-04T07:06:39;-3274.40;86.60
40622;DHT22;26324;52.040;11.528;2023-12-04T07:09:07;-3274.50;86.10
40622;DHT22;26324;52.040;11.528;2023-12-04T07:11:37;-3274.50;86.20
40622;DHT22;26324;52.040;11.528;2023-12-04T07:14:04;-3274.50;86.20
40622;DHT22;26324;52.040;11.528;2023-12-04T07:16:39;-3274.50;86.20
40622;DHT22;26324;52.040;11.528;2023-12-04T07:19:08;-3274.50;86.10
40622;DHT22;26324;52.040;11.528;2023-12-04T07:21:36;-3274.50;86.00
40622;DHT22;26324;52.040;11.528;2023-12-04T07:24:05;-3274.50;86.00
40622;DHT22;26324;52.040;11.528;2023-12-04T07:26:34;-3274.60;85.90
40622;DHT22;26324;52.040;11.528;2023-12-04T07:29:02;-3274.60;85.80
40622;DHT22;26324;52.040;11.528;2023-12-04T07:31:30;-3274.60;85.80
40622;DHT22;26324;52.040;11.528;2023-12-04T07:33:58;-3274.60;85.80
40622;DHT22;26324;52.040;11.528;2023-12-04T07:36:28;-3274.70;85.70
40622;DHT22;26324;52.040;11.528;2023-12-04T07:38:56;-3274.70;85.60
40622;DHT22;26324;52.040;11.528;2023-12-04T07:41:23;-3274.70;85.40
40622;DHT22;26324;52.040;11.528;2023-12-04T07:43:52;-3274.70;85.40
40622;DHT22;26324;52.040;11.528;2023-12-04T07:46:19;-3274.70;85.10
40622;DHT22;26324;52.040;11.528;2023-12-04T07:48:47;-3274.80;85.40
40622;DHT22;26324;52.040;11.528;2023-12-04T07:51:14;-3274.80;85.30
40622;DHT22;26324;52.040;11.528;2023-12-04T07:53:41;-3274.90;85.10
40622;DHT22;26324;52.040;11.528;2023-12-04T07:56:09;-3274.90;85.00
40622;DHT22;26324;52.040;11.528;2023-12-04T07:58:37;-3274.90;84.70
40622;DHT22;26324;52.040;11.528;2023-12-04T08:01:04;-3275.00;84.80
40622;DHT22;26324;52.040;11.528;2023-12-04T08:03:33;-3275.00;84.30
40622;DHT22;26324;52.040;11.528;2023-12-04T08:06:00;-3275.00;84.30
40622;DHT22;26324;52.040;11.528;2023-12-04T08:08:27;-3275.00;84.10
40622;DHT22;26324;52.040;11.528;2023-12-04T08:10:55;-3275.00;84.20
40622;DHT22;26324;52.040;11.528;2023-12-04T08:13:22;-3275.00;84.10
40622;DHT22;26324;52.040;11.528;2023-12-04T08:15:50;-3275.00;84.00
40622;DHT22;26324;52.040;11.528;2023-12-04T08:18:17;-3275.10;84.10
40622;DHT22;26324;52.040;11.528;2023-12-04T08:20:45;-3275.20;83.60
40622;DHT22;26324;52.040;11.528;2023-12-04T08:23:12;-3275.20;83.80
40622;DHT22;26324;52.040;11.528;2023-12-04T08:25:39;-3275.30;83.80
40622;DHT22;26324;52.040;11.528;2023-12-04T08:28:07;-3275.50;83.30
40622;DHT22;26324;52.040;11.528;2023-12-04T08:30:36;-3275.70;82.80
40622;DHT22;26324;52.040;11.528;2023-12-04T08:33:04;-3275.80;82.00
40622;DHT22;26324;52.040;11.528;2023-12-04T08:35:31;-3275.70;81.70
40622;DHT22;26324;52.040;11.528;2023-12-04T08:37:59;-3275.60;82.20
40622;DHT22;26324;52.040;11.528;2023-12-04T08:40:26;-3275.70;81.80
40622;DHT22;26324;52.040;11.528;2023-12-04T08:42:54;-3275.60;81.20
40622;DHT22;26324;52.040;11.528;2023-12-04T08:45:21;-3275.80;81.80
40622;DHT22;26324;52.040;11.528;2023-12-04T08:47:49;-3275.90;81.30
40622;DHT22;26324;52.040;11.528;2023-12-04T08:50:17;-3275.90;81.50
40622;DHT22;26324;52.040;11.528;2023-12-04T08:52:44;-3275.90;81.20
40622;DHT22;26324;52.040;11.528;2023-12-04T08:55:12;-3275.80;80.60
40622;DHT22;26324;52.040;11.528;2023-12-04T08:57:40;-3275.70;81.00
40622;DHT22;26324;52.040;11.528;2023-12-04T09:00:08;-3275.70;80.90
40622;DHT22;26324;52.040;11.528;2023-12-04T09:02:36;-3275.90;81.40
40622;DHT22;26324;52.040;11.528;2023-12-04T09:05:15;-3276.00;81.10
40622;DHT22;26324;52.040;11.528;2023-12-04T09:07:43;-3276.10;81.00
40622;DHT22;26324;52.040;11.528;2023-12-04T09:10:13;-3276.20;80.20
40622;DHT22;26324;52.040;11.528;2023-12-04T09:12:57;-3276.10;80.20
40622;DHT22;26324;52.040;11.528;2023-12-04T09:15:24;-3276.20;80.30
40622;DHT22;26324;52.040;11.528;2023-12-04T09:17:52;-3276.20;80.20
40622;DHT22;26324;52.040;11.528;2023-12-04T09:20:19;-3276.20;80.20
40622;DHT22;26324;52.040;11.528;2023-12-04T09:22:46;-3276.30;80.00
40622;DHT22;26324;52.040;11.528;2023-12-04T09:25:21;-3276.40;79.70
40622;DHT22;26324;52.040;11.528;2023-12-04T09:27:48;-3276.50;79.80
40622;DHT22;26324;52.040;11.528;2023-12-04T09:30:16;-3276.70;79.30
40622;DHT22;26324;52.040;11.528;2023-12-04T09:32:43;-3276.60;78.50
40622;DHT22;26324;52.040;11.528;2023-12-04T09:35:11;-3276.50;78.70
40622;DHT22;26324;52.040;11.528;2023-12-04T09:37:38;-3276.40;79.10
40622;DHT22;26324;52.040;11.528;2023-12-04T09:40:06;-3276.20;79.10
40622;DHT22;26324;52.040;11.528;2023-12-04T09:42:36;-3276.20;79.60
40622;DHT22;26324;52.040;11.528;2023-12-04T09:45:04;-3276.20;79.80
40622;DHT22;26324;52.040;11.528;2023-12-04T09:47:33;-3276.20;79.80
40622;DHT22;26324;52.040;11.528;2023-12-04T09:50:01;-3276.20;79.60
40622;DHT22;26324;52.040;11.528;2023-12-04T09:52:55;-3276.20;79.60
40622;DHT22;26324;52.040;11.528;2023-12-04T09:55:25;-3276.20;79.50
40622;DHT22;26324;52.040;11.528;2023-12-04T09:57:52;-3276.20;79.70
40622;DHT22;26324;52.040;11.528;2023-12-04T10:00:21;-3276.30;79.60
40622;DHT22;26324;52.040;11.528;2023-12-04T10:02:49;-3276.30;79.00
40622;DHT22;26324;52.040;11.528;2023-12-04T10:05:17;-3276.30;79.00
40622;DHT22;26324;52.040;11.528;2023-12-04T10:07:44;-3276.30;78.80
40622;DHT22;26324;52.040;11.528;2023-12-04T10:10:12;-3276.30;79.00
40622;DHT22;26324;52.040;11.528;2023-12-04T10:12:42;-3276.30;78.80
40622;DHT22;26324;52.040;11.528;2023-12-04T10:15:11;-3276.40;78.50
40622;DHT22;26324;52.040;11.528;2023-12-04T10:17:41;-3276.60;78.70
40622;DHT22;26324;52.040;11.528;2023-12-04T10:20:15;0.00;77.90
40622;DHT22;26324;52.040;11.528;2023-12-04T10:22:54;0.10;77.80
40622;DHT22;26324;52.040;11.528;2023-12-04T10:25:23;0.10;77.00
40622;DHT22;26324;52.040;11.528;2023-12-04T10:27:52;0.20;76.60
40622;DHT22;26324;52.040;11.528;2023-12-04T10:30:29;0.30;75.90
40622;DHT22;26324;52.040;11.528;2023-12-04T10:33:02;0.10;75.30
40622;DHT22;26324;52.040;11.528;2023-12-04T10:35:30;0.10;76.20
40622;DHT22;26324;52.040;11.528;2023-12-04T10:37:59;0.10;76.30
40622;DHT22;26324;52.040;11.528;2023-12-04T10:40:28;0.10;76.40
40622;DHT22;26324;52.040;11.528;2023-12-04T10:43:10;0.00;76.80
40622;DHT22;26324;52.040;11.528;2023-12-04T10:45:39;0.10;76.50
40622;DHT22;26324;52.040;11.528;2023-12-04T10:48:09;0.20;76.00
40622;DHT22;26324;52.040;11.528;2023-12-04T10:50:38;0.20;75.90
40622;DHT22;26324;52.040;11.528;2023-12-04T10:53:06;0.20;75.70
40622;DHT22;26324;52.040;11.528;2023-12-04T10:55:35;0.20;76.20
40622;DHT22;26324;52.040;11.528;2023-12-04T10:58:08;0.30;76.30
40622;DHT22;26324;52.040;11.528;2023-12-04T11:00:40;0.30;75.60
40622;DHT22;26324;52.040;11.528;2023-12-04T11:03:10;0.30;75.50
40622;DHT22;26324;52.040;11.528;2023-12-04T11:05:41;0.40;74.80
40622;DHT22;26324;52.040;11.528;2023-12-04T11:08:16;0.50;75.30
40622;DHT22;26324;52.040;11.528;2023-12-04T11:10:46;0.60;75.10
40622;DHT22;26324;52.040;11.528;2023-12-04T11:13:20;0.60;74.80
40622;DHT22;26324;52.040;11.528;2023-12-04T11:15:50;0.60;74.90
40622;DHT22;26324;52.040;11.528;2023-12-04T11:18:23;0.60;74.90
40622;DHT22;26324;52.040;11.528;2023-12-04T11:20:55;0.60;75.10
40622;DHT22;26324;52.040;11.528;2023-12-04T11:23:24;0.90;74.90
40622;DHT22;26324;52.040;11.528;2023-12-04T11:25:53;0.70;74.60
40622;DHT22;26324;52.040;11.528;2023-12-04T11:28:21;0.70;75.00
40622;DHT22;26324;52.040;11.528;2023-12-04T11:30:49;0.60;75.30
40622;DHT22;26324;52.040;11.528;2023-12-04T11:33:18;0.50;74.80
40622;DHT22;26324;52.040;11.528;2023-12-04T11:35:45;0.30;75.20
40622;DHT22;26324;52.040;11.528;2023-12-04T11:38:13;0.20;76.00
40622;DHT22;26324;52.040;11.528;2023-12-04T11:40:41;0.30;75.90
40622;DHT22;26324;52.040;11.528;2023-12-04T11:43:25;0.30;76.10
40622;DHT22;26324;52.040;11.528;2023-12-04T11:45:53;0.40;75.70
40622;DHT22;26324;52.040;11.528;2023-12-04T11:48:24;0.40;75.40
40622;DHT22;26324;52.040;11.528;2023-12-04T11:50:52;0.50;75.80
40622;DHT22;26324;52.040;11.528;2023-12-04T11:53:19;0.50;75.50
40622;DHT22;26324;52.040;11.528;2023-12-04T11:55:47;0.50;75.20
40622;DHT22;26324;52.040;11.528;2023-12-04T11:58:17;0.40;75.70
40622;DHT22;26324;52.040;11.528;2023-12-04T12:00:44;0.40;75.20
40622;DHT22;26324;52.040;11.528;2023-12-04T12:03:15;0.20;75.30
40622;DHT22;26324;52.040;11.528;2023-12-04T12:05:50;0.20;75.90
40622;DHT22;26324;52.040;11.528;2023-12-04T12:08:20;0.30;76.50
40622;DHT22;26324;52.040;11.528;2023-12-04T12:10:49;0.10;75.90
40622;DHT22;26324;52.040;11.528;2023-12-04T12:13:17;0.20;76.10
40622;DHT22;26324;52.040;11.528;2023-12-04T12:15:47;0.20;75.80
40622;DHT22;26324;52.040;11.528;2023-12-04T12:18:15;0.10;76.10
40622;DHT22;26324;52.040;11.528;2023-12-04T12:20:42;0.10;76.30
40622;DHT22;26324;52.040;11.528;2023-12-04T12:23:10;0.10;76.50
40622;DHT22;26324;52.040;11.528;2023-12-04T12:25:38;0.20;76.50
40622;DHT22;26324;52.040;11.528;2023-12-04T12:28:05;0.20;76.20
40622;DHT22;26324;52.040;11.528;2023-12-04T12:30:33;0.40;76.40
40622;DHT22;26324;52.040;11.528;2023-12-04T12:33:01;0.50;75.50
40622;DHT22;26324;52.040;11.528;2023-12-04T12:35:28;0.40;75.70
40622;DHT22;26324;52.040;11.528;2023-12-04T12:37:56;0.20;75.80
40622;DHT22;26324;52.040;11.528;2023-12-04T12:40:27;0.30;76.10
40622;DHT22;26324;52.040;11.528;2023-12-04T12:43:06;0.20;75.60
40622;DHT22;26324;52.040;11.528;2023-12-04T12:45:42;0.10;75.80
40622;DHT22;26324;52.040;11.528;2023-12-04T12:48:12;0.00;76.00
40622;DHT22;26324;52.040;11.528;2023-12-04T12:50:44;0.00;76.00
40622;DHT22;26324;52.040;11.528;2023-12-04T12:53:13;0.00;76.50
40622;DHT22;26324;52.040;11.528;2023-12-04T12:55:41;0.00;76.30
40622;DHT22;26324;52.040;11.528;2023-12-04T12:58:12;0.00;76.50
40622;DHT22;26324;52.040;11.528;2023-12-04T13:00:41;0.10;76.70
40622;DHT22;26324;52.040;11.528;2023-12-04T13:03:17;0.10;76.60
40622;DHT22;26324;52.040;11.528;2023-12-04T13:05:45;0.00;76.40
40622;DHT22;26324;52.040;11.528;2023-12-04T13:08:14;0.00;76.80
40622;DHT22;26324;52.040;11.528;2023-12-04T13:10:42;0.10;76.60
40622;DHT22;26324;52.040;11.528;2023-12-04T13:13:13;0.00;76.90
40622;DHT22;26324;52.040;11.528;2023-12-04T13:15:42;0.00;77.00
40622;DHT22;26324;52.040;11.528;2023-12-04T13:18:09;0.00;77.20
40622;DHT22;26324;52.040;11.528;2023-12-04T13:20:37;0.10;77.10
40622;DHT22;26324;52.040;11.528;2023-12-04T13:23:04;0.10;77.40
40622;DHT22;26324;52.040;11.528;2023-12-04T13:25:31;0.00;76.70
40622;DHT22;26324;52.040;11.528;2023-12-04T13:27:59;0.00;77.20
40622;DHT22;26324;52.040;11.528;2023-12-04T13:30:26;0.00;77.60
40622;DHT22;26324;52.040;11.528;2023-12-04T13:32:54;0.00;77.30
40622;DHT22;26324;52.040;11.528;2023-12-04T13:35:22;0.00;77.70
40622;DHT22;26324;52.040;11.528;2023-12-04T13:37:49;0.00;77.10
40622;DHT22;26324;52.040;11.528;2023-12-04T13:40:24;0.00;76.90
40622;DHT22;26324;52.040;11.528;2023-12-04T13:42:54;0.00;77.20
40622;DHT22;26324;52.040;11.528;2023-12-04T13:45:41;-3276.70;77.10
40622;DHT22;26324;52.040;11.528;2023-12-04T13:48:08;-3276.70;77.70
40622;DHT22;26324;52.040;11.528;2023-12-04T13:50:36;-3276.60;78.00
40622;DHT22;26324;52.040;11.528;2023-12-04T13:53:04;-3276.60;78.10
40622;DHT22;26324;52.040;11.528;2023-12-04T13:55:33;-3276.70;78.10
40622;DHT22;26324;52.040;11.528;2023-12-04T13:58:34;-3276.70;78.30
40622;DHT22;26324;52.040;11.528;2023-12-04T14:01:01;-3276.60;78.80
40622;DHT22;26324;52.040;11.528;2023-12-04T14:03:43;-3276.40;78.90
40622;DHT22;26324;52.040;11.528;2023-12-04T14:06:11;-3276.40;78.70
40622;DHT22;26324;52.040;11.528;2023-12-04T14:08:39;-3276.50;78.80
40622;DHT22;26324;52.040;11.528;2023-12-04T14:11:07;-3276.50;79.10
40622;DHT22;26324;52.040;11.528;2023-12-04T14:13:35;-3276.50;79.40
40622;DHT22;26324;52.040;11.528;2023-12-04T14:16:03;-3276.50;79.10
40622;DHT22;26324;52.040;11.528;2023-12-04T14:18:31;-3276.50;79.20
40622;DHT22;26324;52.040;11.528;2023-12-04T14:20:58;-3276.40;79.30
40622;DHT22;26324;52.040;11.528;2023-12-04T14:23:29;-3276.40;79.80
40622;DHT22;26324;52.040;11.528;2023-12-04T14:25:56;-3276.40;79.80
40622;DHT22;26324;52.040;11.528;2023-12-04T14:28:23;-3276.40;80.30
40622;DHT22;26324;52.040;11.528;2023-12-04T14:30:59;-3276.40;80.40
40622;DHT22;26324;52.040;11.528;2023-12-04T14:33:26;-3276.50;80.30
40622;DHT22;26324;52.040;11.528;2023-12-04T14:35:54;-3276.40;80.30
40622;DHT22;26324;52.040;11.528;2023-12-04T14:38:21;-3276.40;80.20
40622;DHT22;26324;52.040;11.528;2023-12-04T14:40:49;-3276.50;80.20
40622;DHT22;26324;52.040;11.528;2023-12-04T14:43:17;-3276.50;80.20
40622;DHT22;26324;52.040;11.528;2023-12-04T14:45:44;-3276.50;80.00
40622;DHT22;26324;52.040;11.528;2023-12-04T14:48:12;-3276.50;80.30
40622;DHT22;26324;52.040;11.528;2023-12-04T14:50:39;-3276.50;80.20
40622;DHT22;26324;52.040;11.528;2023-12-04T14:53:10;-3276.50;80.20
40622;DHT22;26324;52.040;11.528;2023-12-04T14:55:43;-3276.60;80.30
40622;DHT22;26324;52.040;11.528;2023-12-04T14:58:31;-3276.60;80.20